Terminal Aerodrome Forecast
Issued by NWS

Home | Current Version | Previous Version | Text Only | Print | Product List | Glossary Off
Versions: 1 2 3 4 5 6 7 8 9 10 11 12 13 14 15 16 17 18

055
FTUS43 KDLH 131124
TAFHYR
TAF
KHYR 131124Z 1312/1412 VRB03KT P6SM SKC
     FM141000 16007KT P6SM BKN150=

USA.gov is the U.S. government's official web portal to all federal, state and local government web resources and services.